Terminal Aerodrome Forecast
Issued by NWS

Home | Current Version | Previous Version | Text Only | Print | Product List | Glossary On
Versions: 1 2 3 4 5 6 7 8 9 10 11 12
000
FTUS41 KBTV 122300
TAFRUT
TAF
KRUT 122326Z 1300/1324 21006KT P6SM VCSH SCT070 BKN120
     FM130400 15006KT P6SM SCT120
     FM131400 18010G20KT P6SM VCSH BKN050 OVC080
      AMD LTD TO CLD VIS AND WIND=

USA.gov is the U.S. government's official web portal to all federal, state and local government web resources and services.